AirNav   Everest Fuels
 
 614 users online  

13NJ Wyeth-Ayerst Research Heliport
Princeton, New Jersey, USA

GOING TO PRINCETON?


FAA INFORMATION EFFECTIVE 03 DECEMBER 2020

Location

FAA Identifier: 13NJ
Lat/Long: 40-21-54.3850N 074-34-58.5610W
40-21.906417N 074-34.976017W
40.3651069,-74.5829336
(estimated)
Elevation: 117 ft. / 36 m (estimated)
Variation: 12W (1985)
From city: 5 miles NE of PRINCETON, NJ
Time zone: UTC -5 (UTC -4 during Daylight Saving Time)
Zip code: 08852

Heliport Operations

Heliport use: Private use. Permission required prior to landing
Activation date: 05/1989
Control tower: no
ARTCC: NEW YORK CENTER
FSS: MILLVILLE FLIGHT SERVICE STATION
Attendance: UNATNDD
Wind indicator: yes
Segmented circle: no
Lights: FOR PERIMETER LGTS CALL 201-274-4201.

Heliport Communications

WX ASOS at TTN (12 nm SW): 126.775 (609-538-8690)
WX ASOS at SMQ (16 nm N): 120.6 (908-722-2139)

Nearby radio navigation aids

VOR radial/distance  VOR name  Freq  Var
RBVr348/10.6ROBBINSVILLE VORTAC113.8010W
SBJr161/15.0SOLBERG VOR/DME112.9010W
ARDr076/16.3YARDLEY VOR/DME108.2010W
COLr290/19.6COLTS NECK VOR/DME115.4011W
GXUr014/21.3MC GUIRE VORTAC110.6012W
BWZr168/28.2BROADWAY VOR/DME114.2011W
CYNr358/33.6COYLE VORTAC113.4010W
CRIr256/34.7CANARSIE VOR/DME112.3011W
TEBr230/37.5TETERBORO VOR/DME108.4011W

 
NDB name  Hdg/Dist  Freq  Var  ID
LAKEHURST340/22.339611WNEL -. . .-..
CHATHAM210/23.625413WCAT -.-. .- -
AMBLER078/35.227512WING .. -. --.

Heliport Services

Runway Information

Helipad H1

Dimensions: 50 x 50 ft. / 15 x 15 m
Surface: asphalt
Runway edge lights: PERI
Latitude: 40-21.906417N
Longitude: 074-34.976017W
Elevation: 117.0 ft.
Traffic pattern: leftleft

Heliport Ownership and Management from official FAA records

Ownership: Privately-owned
Owner: WYETH-AYERST RESEARCH INC.
CN 8000
PRINCETON, NJ 08543
Phone 201-329-2300
Manager: DIRECTOR, PLANT OPERATIONS
CN 8000
PRINCETON, NJ 08543
Phone 201-274-4251

Additional Remarks

TWR 2.5 MI SE 100' ABOVE HELIPAD; TWR 1 MI N 100' ABOVE HELIPAD
FOR CD CTC NEW YORK APCH AT 800-645-3206.

Instrument Procedures

There are no published instrument procedures at 13NJ.

Some nearby airports with instrument procedures:

39N - Princeton Airport (4 nm NW)
N87 - Trenton-Robbinsville Airport (9 nm S)
47N - Central Jersey Regional Airport (10 nm N)
3N6 - Old Bridge Airport (11 nm E)
KTTN - Trenton Mercer Airport (12 nm SW)
N51 - Solberg-Hunterdon Airport (15 nm NW)
KSMQ - Somerset Airport (16 nm N)
 
Loc | Ops | Rwys | IFR | FBO | Links
Com | Nav | Svcs | Stats | Notes
Area around 13NJ (Wyeth-Ayerst Research Heliport)
 
Road maps at: MapQuest Bing Google
 
Aerial photo
No photo
 
Sectional chart

 
Airport distance calculator
Flying to Wyeth-Ayerst Research Heliport? Find the distance to fly.

From to 13NJ

Sunrise and sunset
Times for 03-Dec-2020
 Local
(UTC-5)
 Zulu
(UTC)
Morning civil twilight06:3611:36
Sunrise07:0612:06
Sunset16:3121:31
Evening civil twilight17:0122:01

Current date and time
Zulu (UTC)  03-Dec-2020 12:20:52
Local (UTC-5)  03-Dec-2020 07:20:52
 
METAR
KTTN 
12nm SW 
ASOS 133.70 609-538-8690
031153Z 24003KT 10SM CLR M01/M06 A3023 RMK AO2 SLP232 T10111056 10011 21022 51008
KSMQ 
16nm N 
ASOS 120.60 908-722-2139
031153Z AUTO 00000KT 10SM CLR M04/M06 A3021 RMK AO2 SLP231 I1001 I6001 T10391056 10011 21044 50008
KWRI 
21nm S 
031156Z AUTO 22004KT 10SM CLR M02/M06 A3024 RMK AO2 SLP241 T10191056 10015 21021 50008 $
KLDJ 
22nm NE 
031155Z AUTO 00000KT 10SM CLR 00/M05 A3023 RMK AO2 T00031050 10017 20003
TAF
KTTN 
12nm SW 
030520Z 0306/0406 26005KT P6SM SKC FM031000 24005KT P6SM FEW250 FM032100 23008KT P6SM SCT150
NOTAMs
Click for the latest NOTAMs
NOTAMs are issued by the DoD/FAA and will open in a separate window not controlled by AirNav.

 

 
 

Would you like to see your business listed on this page?

 If your business provides an interesting product or service to pilots, flight crews, aircraft, or users of the Wyeth-Ayerst Research Heliport, you should consider listing it here.  To start the listing process, click on the button below
 
Add a business
 

Other Pages about Wyeth-Ayerst Research Heliport

Update a link
 
Copyright © AirNav, LLC. All rights reserved. Privacy Policy  Contact